Terminal Aerodrome Forecast
Issued by NWS Green Bay, WI

Home | Current Version | Previous Version | Text Only | Print | Product List | Glossary Off
Versions: 1 2 3 4 5 6 7 8 9 10 11 12 13 14 15 16 17 18 19

000
FTUS43 KGRB 252302 AAB
TAFGRB
TAF AMD
KGRB 252302Z 2523/2618 29007G15KT P6SM VCSH SCT035 BKN050
      TEMPO 2523/2602 5SM -TSRA BKN035CB
     FM260600 30007KT P6SM BKN060
     FM261200 31010G15KT P6SM BKN025=

USA.gov is the U.S. government's official web portal to all federal, state and local government web resources and services.